Terminal Aerodrome Forecast
Issued by NWS Hastings, NE

Home | Current Version | Previous Version | Text Only | Print | Product List | Glossary On
Versions: 1 2 3 4 5 6 7 8 9 10 11 12
000
FTUS45 KGID 281142
TAFEAR
TAF
KEAR 281142Z 2812/2912 30010KT P6SM SKC
     FM281500 31015G22KT P6SM FEW250
     FM290100 30010KT P6SM FEW100 SCT250
      AMD LTD TO CLD VIS AND WIND=

USA.gov is the U.S. government's official web portal to all federal, state and local government web resources and services.